createdAt,value
2023-04-26T00:00:43.832Z,12.82
2023-04-26T00:03:13.458Z,12.68
2023-04-26T00:05:41.068Z,11.95
2023-04-26T00:08:09.228Z,17.10
2023-04-26T00:10:37.147Z,13.68
2023-04-26T00:13:05.125Z,15.93
2023-04-26T00:15:32.589Z,13.05
2023-04-26T00:17:59.655Z,13.38
2023-04-26T00:20:27.738Z,13.95
2023-04-26T00:22:54.772Z,12.90
2023-04-26T00:25:23.823Z,14.18
2023-04-26T00:27:52.385Z,11.45
2023-04-26T00:30:19.641Z,11.90
2023-04-26T00:32:48.005Z,11.05
2023-04-26T00:35:15.092Z,11.05
2023-04-26T00:37:42.339Z,11.38
2023-04-26T00:40:10.539Z,15.27
2023-04-26T00:42:38.795Z,13.43
2023-04-26T00:45:07.415Z,14.45
2023-04-26T00:47:38.439Z,14.02
2023-04-26T00:50:05.879Z,11.43
2023-04-26T00:52:32.919Z,10.93
2023-04-26T00:55:00.013Z,14.45
2023-04-26T00:57:27.595Z,10.23
2023-04-26T00:59:55.288Z,11.38
2023-04-26T01:02:23.144Z,12.48
2023-04-26T01:04:54.222Z,14.95
2023-04-26T01:07:21.268Z,12.13
2023-04-26T01:09:48.642Z,10.82
2023-04-26T01:12:15.751Z,16.77
2023-04-26T01:14:43.903Z,14.20
2023-04-26T01:17:11.191Z,14.80
2023-04-26T01:19:50.055Z,10.90
2023-04-26T01:22:17.859Z,13.60
2023-04-26T01:24:50.505Z,11.13
2023-04-26T01:27:17.772Z,11.57
2023-04-26T01:29:46.166Z,16.92
2023-04-26T01:32:13.266Z,10.60
2023-04-26T01:34:40.283Z,9.65
2023-04-26T01:37:07.814Z,11.10
2023-04-26T01:39:36.800Z,12.52
2023-04-26T01:42:04.872Z,12.25
2023-04-26T01:44:32.498Z,12.05
2023-04-26T01:47:01.955Z,10.35
2023-04-26T01:49:29.549Z,13.10
2023-04-26T01:51:56.517Z,11.82
2023-04-26T01:54:24.484Z,10.63
2023-04-26T01:56:53.336Z,13.35
2023-04-26T01:59:20.877Z,14.15
2023-04-26T02:01:47.975Z,15.98
2023-04-26T02:04:15.169Z,12.88
2023-04-26T02:06:42.394Z,8.65
2023-04-26T02:09:09.797Z,16.45
2023-04-26T02:11:40.453Z,13.38
2023-04-26T02:14:07.552Z,12.05
2023-04-26T02:16:34.636Z,11.50
2023-04-26T02:19:02.563Z,13.68
2023-04-26T02:21:30.808Z,9.10
2023-04-26T02:23:58.397Z,13.02
2023-04-26T02:26:26.962Z,12.05
2023-04-26T02:28:54.233Z,15.60
2023-04-26T02:31:22.840Z,17.13
2023-04-26T02:33:50.402Z,12.85
2023-04-26T02:36:17.409Z,13.90
2023-04-26T02:38:44.434Z,13.68
2023-04-26T02:41:11.466Z,15.43
2023-04-26T02:43:39.295Z,13.30
2023-04-26T02:46:09.371Z,12.05
2023-04-26T02:48:36.873Z,15.88
2023-04-26T02:51:04.842Z,13.70
2023-04-26T02:53:31.925Z,16.52
2023-04-26T02:56:01.993Z,13.52
2023-04-26T02:58:29.441Z,14.30
2023-04-26T03:01:01.071Z,18.20
2023-04-26T03:03:29.150Z,17.58
2023-04-26T03:05:56.818Z,21.52
2023-04-26T03:08:24.477Z,18.00
2023-04-26T03:10:51.770Z,19.25
2023-04-26T03:13:18.763Z,14.57
2023-04-26T03:15:46.569Z,15.95
2023-04-26T03:18:13.782Z,13.27
2023-04-26T03:20:41.983Z,11.50
2023-04-26T03:23:09.788Z,11.63
2023-04-26T03:25:37.529Z,11.75
2023-04-26T03:28:05.016Z,16.38
2023-04-26T03:30:32.164Z,11.80
2023-04-26T03:32:59.543Z,9.77
2023-04-26T03:35:26.903Z,14.07
2023-04-26T03:37:55.317Z,12.25
2023-04-26T03:40:23.834Z,11.90
2023-04-26T03:42:51.670Z,14.95
2023-04-26T03:45:18.842Z,13.55
2023-04-26T03:47:46.755Z,15.07
2023-04-26T03:50:14.018Z,13.25
2023-04-26T03:52:41.094Z,12.10
2023-04-26T03:55:10.200Z,15.55
2023-04-26T03:57:37.781Z,15.50
2023-04-26T04:00:13.813Z,10.82
2023-04-26T04:02:44.572Z,13.38
2023-04-26T04:05:18.022Z,14.73
2023-04-26T04:07:45.339Z,10.05
2023-04-26T04:10:12.515Z,11.70
2023-04-26T04:12:40.798Z,11.25
2023-04-26T04:15:08.572Z,9.57
2023-04-26T04:17:38.824Z,14.50
2023-04-26T04:20:07.534Z,11.02
2023-04-26T04:22:34.801Z,11.80
2023-04-26T04:25:01.785Z,17.95
2023-04-26T04:27:32.078Z,10.48
2023-04-26T04:29:59.995Z,17.70
2023-04-26T04:32:27.729Z,12.02
2023-04-26T04:34:56.973Z,9.90
2023-04-26T04:37:25.783Z,10.65
2023-04-26T04:39:55.738Z,16.65
2023-04-26T04:42:23.459Z,15.13
2023-04-26T04:44:50.992Z,19.55
2023-04-26T04:47:20.903Z,16.27
2023-04-26T04:49:47.932Z,17.05
2023-04-26T04:52:16.302Z,16.08
2023-04-26T04:54:45.593Z,16.25
2023-04-26T04:57:13.917Z,11.73
2023-04-26T04:59:42.246Z,13.93
2023-04-26T05:02:10.007Z,11.05
2023-04-26T05:04:37.702Z,13.10
2023-04-26T05:07:06.984Z,12.02
2023-04-26T05:09:35.777Z,9.35
2023-04-26T05:12:03.221Z,13.48
2023-04-26T05:14:31.294Z,9.13
2023-04-26T05:16:58.806Z,9.63
2023-04-26T05:19:26.667Z,9.20
2023-04-26T05:21:53.929Z,9.38
2023-04-26T05:24:21.610Z,6.90
2023-04-26T05:26:48.851Z,11.15
2023-04-26T05:29:21.438Z,8.40
2023-04-26T05:32:02.966Z,11.45
2023-04-26T05:34:51.149Z,12.23
2023-04-26T05:37:18.264Z,9.02
2023-04-26T05:39:45.341Z,10.48
2023-04-26T05:42:17.720Z,7.55
2023-04-26T05:44:45.344Z,10.70
2023-04-26T05:47:12.938Z,8.15
2023-04-26T05:49:40.033Z,10.15
2023-04-26T05:52:07.394Z,11.02
2023-04-26T05:54:35.153Z,10.35
2023-04-26T05:57:02.967Z,7.22
2023-04-26T05:59:33.024Z,9.20
2023-04-26T06:02:00.473Z,8.52
2023-04-26T06:04:28.204Z,11.70
2023-04-26T06:07:08.867Z,10.30
2023-04-26T06:09:36.421Z,12.18
2023-04-26T06:12:05.758Z,10.82
2023-04-26T06:14:36.847Z,9.90
2023-04-26T06:17:09.822Z,9.32
2023-04-26T06:19:37.814Z,9.50
2023-04-26T06:22:05.022Z,10.43
2023-04-26T06:24:32.104Z,8.85
2023-04-26T06:27:00.538Z,9.88
2023-04-26T06:29:30.634Z,13.35
2023-04-26T06:31:58.781Z,8.05
2023-04-26T06:34:26.415Z,8.85
2023-04-26T06:36:53.923Z,8.65
2023-04-26T06:39:23.498Z,10.88
2023-04-26T06:41:52.515Z,8.50
2023-04-26T06:44:27.575Z,10.02
2023-04-26T06:49:29.047Z,10.70
2023-04-26T06:51:56.627Z,10.73
2023-04-26T06:54:28.788Z,8.23
2023-04-26T06:56:59.393Z,10.77
2023-04-26T06:59:28.588Z,9.80
2023-04-26T07:01:56.395Z,10.80
2023-04-26T07:04:23.764Z,9.77
2023-04-26T07:06:52.295Z,7.45
2023-04-26T07:09:19.725Z,8.10
2023-04-26T07:11:47.575Z,11.20
2023-04-26T07:14:14.804Z,9.98
2023-04-26T07:16:42.040Z,9.05
2023-04-26T07:19:11.046Z,11.23
2023-04-26T07:21:38.165Z,9.55
2023-04-26T07:24:06.788Z,8.85
2023-04-26T07:26:35.281Z,9.10
2023-04-26T07:29:02.487Z,7.57
2023-04-26T07:31:33.178Z,7.53
2023-04-26T07:34:00.426Z,9.45
2023-04-26T07:36:27.971Z,6.85
2023-04-26T07:38:55.760Z,11.05
2023-04-26T07:41:25.447Z,8.00
2023-04-26T07:43:52.922Z,8.95
2023-04-26T07:46:20.166Z,12.70
2023-04-26T07:48:47.297Z,7.72
2023-04-26T07:51:14.453Z,8.52
2023-04-26T07:53:41.704Z,9.75
2023-04-26T07:56:09.619Z,8.30
2023-04-26T07:58:37.420Z,7.35
2023-04-26T08:01:05.956Z,7.57
2023-04-26T08:03:34.313Z,11.52
2023-04-26T08:06:02.640Z,8.85
2023-04-26T08:08:29.915Z,7.28
2023-04-26T08:10:57.016Z,6.95
2023-04-26T08:13:25.615Z,8.65
2023-04-26T08:15:55.775Z,7.93
2023-04-26T08:18:22.902Z,7.22
2023-04-26T08:20:50.165Z,6.97
2023-04-26T08:23:19.606Z,10.13
2023-04-26T08:25:47.994Z,6.72
2023-04-26T08:28:16.391Z,9.05
2023-04-26T08:30:43.699Z,23.85
2023-04-26T08:33:10.994Z,7.70
2023-04-26T08:35:40.370Z,5.43
2023-04-26T08:38:08.555Z,7.72
2023-04-26T08:40:36.415Z,9.40
2023-04-26T08:43:03.493Z,8.15
2023-04-26T08:45:34.637Z,6.78
2023-04-26T08:48:07.256Z,6.38
2023-04-26T08:50:35.857Z,5.90
2023-04-26T08:53:04.261Z,7.50
2023-04-26T08:55:31.475Z,9.13
2023-04-26T08:57:58.539Z,11.85
2023-04-26T09:00:27.402Z,10.27
2023-04-26T09:02:55.569Z,7.38
2023-04-26T09:05:25.013Z,7.13
2023-04-26T09:07:56.555Z,8.82
2023-04-26T09:10:24.092Z,6.95
2023-04-26T09:12:54.808Z,6.15
2023-04-26T09:15:22.821Z,6.03
2023-04-26T09:17:51.815Z,6.63
2023-04-26T09:20:21.264Z,6.75
2023-04-26T09:22:49.797Z,6.55
2023-04-26T09:25:18.493Z,12.20
2023-04-26T09:27:46.052Z,6.65
2023-04-26T09:30:17.647Z,6.25
2023-04-26T09:32:45.574Z,8.85
2023-04-26T09:35:26.040Z,6.03
2023-04-26T09:38:12.254Z,5.43
2023-04-26T09:40:46.180Z,5.93
2023-04-26T09:43:14.760Z,4.85
2023-04-26T09:45:52.824Z,8.30
2023-04-26T09:48:22.906Z,4.43
2023-04-26T09:51:36.656Z,5.60
2023-04-26T09:54:13.796Z,3.58
2023-04-26T09:56:42.029Z,11.10
2023-04-26T09:59:15.098Z,8.98
2023-04-26T10:01:52.765Z,7.35
2023-04-26T10:04:28.029Z,7.13
2023-04-26T10:07:25.736Z,5.35
2023-04-26T10:10:00.150Z,5.28
2023-04-26T10:12:33.435Z,6.10
2023-04-26T10:15:15.671Z,7.30
2023-04-26T10:18:09.839Z,6.70
2023-04-26T10:20:48.450Z,7.68
2023-04-26T10:24:03.338Z,6.60
2023-04-26T10:26:59.251Z,6.35
2023-04-26T10:29:55.772Z,5.63
2023-04-26T10:32:25.741Z,4.95
2023-04-26T10:35:12.560Z,8.05
2023-04-26T10:38:31.807Z,3.67
2023-04-26T10:42:23.566Z,6.30
2023-04-26T10:45:12.772Z,5.40
2023-04-26T10:47:38.889Z,7.85
2023-04-26T10:50:17.838Z,8.68
2023-04-26T10:53:06.825Z,3.38
2023-04-26T10:55:40.048Z,5.50
2023-04-26T10:58:30.795Z,5.68
2023-04-26T11:01:14.071Z,2.90
2023-04-26T11:07:11.993Z,5.35
2023-04-26T11:09:53.484Z,6.88
2023-04-26T11:12:48.189Z,9.52
2023-04-26T11:15:18.629Z,5.88
2023-04-26T11:17:50.082Z,6.38
2023-04-26T11:20:33.713Z,4.28
2023-04-26T11:26:29.544Z,2.53
2023-04-26T11:28:57.680Z,5.97
2023-04-26T11:31:34.006Z,4.00
2023-04-26T11:34:05.763Z,5.78
2023-04-26T11:36:33.092Z,4.80
2023-04-26T11:39:02.570Z,5.00
2023-04-26T11:41:29.558Z,4.55
2023-04-26T11:43:56.747Z,5.90
2023-04-26T11:46:24.923Z,5.55
2023-04-26T11:48:52.674Z,5.80
2023-04-26T11:51:19.862Z,5.68
2023-04-26T11:53:46.863Z,4.63
2023-04-26T11:56:21.895Z,5.90
2023-04-26T11:58:50.855Z,8.13
2023-04-26T12:01:25.400Z,6.65
2023-04-26T12:03:57.721Z,7.13
2023-04-26T12:06:34.875Z,5.82
2023-04-26T12:09:03.079Z,6.63
2023-04-26T12:11:31.059Z,6.03
2023-04-26T12:13:59.326Z,5.35
2023-04-26T12:16:27.292Z,5.50
2023-04-26T12:18:57.115Z,4.88
2023-04-26T12:21:25.559Z,5.03
2023-04-26T12:23:53.088Z,4.38
2023-04-26T12:26:20.485Z,4.90
2023-04-26T12:28:47.914Z,3.45
2023-04-26T12:31:15.076Z,5.80
2023-04-26T12:33:42.454Z,5.00
2023-04-26T12:36:10.419Z,4.05
2023-04-26T12:38:38.188Z,4.35
2023-04-26T12:41:05.775Z,4.72
2023-04-26T12:43:32.917Z,5.18
2023-04-26T12:46:00.685Z,5.75
2023-04-26T12:48:28.780Z,5.20
2023-04-26T12:50:56.959Z,4.82
2023-04-26T12:53:27.543Z,6.47
2023-04-26T12:55:54.831Z,5.97
2023-04-26T12:58:22.786Z,4.97
2023-04-26T13:00:51.271Z,4.70
2023-04-26T13:03:21.580Z,4.45
2023-04-26T13:05:48.892Z,4.55
2023-04-26T13:08:16.069Z,5.90
2023-04-26T13:10:43.341Z,3.90
2023-04-26T13:13:14.083Z,5.75
2023-04-26T13:15:41.322Z,6.43
2023-04-26T13:18:09.446Z,6.80
2023-04-26T13:20:38.222Z,3.65
2023-04-26T13:23:06.364Z,5.72
2023-04-26T13:25:34.541Z,3.65
2023-04-26T13:28:02.980Z,6.53
2023-04-26T13:30:30.770Z,4.18
2023-04-26T13:32:59.934Z,5.43
2023-04-26T13:35:29.549Z,4.47
2023-04-26T13:37:56.797Z,5.30
2023-04-26T13:40:26.846Z,4.88
2023-04-26T13:42:56.567Z,5.13
2023-04-26T13:45:25.001Z,3.97
2023-04-26T13:47:51.993Z,4.82
2023-04-26T13:50:19.757Z,3.30
2023-04-26T13:52:47.147Z,5.82
2023-04-26T13:55:14.536Z,6.47
2023-04-26T13:57:42.242Z,6.72
2023-04-26T14:00:09.836Z,7.25
2023-04-26T14:02:42.304Z,7.20
2023-04-26T14:05:09.860Z,4.78
2023-04-26T14:07:37.339Z,5.22
2023-04-26T14:10:05.097Z,4.93
2023-04-26T14:12:32.585Z,6.57
2023-04-26T14:15:06.032Z,5.07
2023-04-26T14:17:33.722Z,5.20
2023-04-26T14:20:00.947Z,5.30
2023-04-26T14:22:28.828Z,5.20
2023-04-26T14:24:56.025Z,4.82
2023-04-26T14:27:23.825Z,8.65
2023-04-26T14:29:54.005Z,4.95
2023-04-26T14:32:21.629Z,5.80
2023-04-26T14:34:48.678Z,4.72
2023-04-26T14:37:16.204Z,8.73
2023-04-26T14:39:43.285Z,7.25
2023-04-26T14:42:11.373Z,6.18
2023-04-26T14:44:39.502Z,6.70
2023-04-26T14:47:06.911Z,7.38
2023-04-26T14:49:33.905Z,5.50
2023-04-26T14:52:01.106Z,9.10
2023-04-26T14:54:28.115Z,6.72
2023-04-26T14:56:55.195Z,8.77
2023-04-26T14:59:22.864Z,12.65
2023-04-26T15:01:53.212Z,6.13
2023-04-26T15:04:22.770Z,3.90
2023-04-26T15:06:50.089Z,7.22
2023-04-26T15:09:17.619Z,6.43
2023-04-26T15:11:44.622Z,6.00
2023-04-26T15:14:11.777Z,6.05
2023-04-26T15:16:40.057Z,4.70
2023-04-26T15:19:10.757Z,5.05
2023-04-26T15:21:38.869Z,4.90
2023-04-26T15:24:07.586Z,6.30
2023-04-26T15:26:34.878Z,5.95
2023-04-26T15:29:02.147Z,7.63
2023-04-26T15:31:29.249Z,6.47
2023-04-26T15:33:57.020Z,7.63
2023-04-26T15:36:24.937Z,6.38
2023-04-26T15:38:52.129Z,3.83
2023-04-26T15:41:19.201Z,5.97
2023-04-26T15:43:46.298Z,6.88
2023-04-26T15:46:15.003Z,10.93
2023-04-26T15:48:42.128Z,6.35
2023-04-26T15:51:09.172Z,7.90
2023-04-26T15:53:39.213Z,4.68
2023-04-26T15:56:17.731Z,5.20
2023-04-26T15:58:50.429Z,4.45
2023-04-26T16:01:18.828Z,5.88
2023-04-26T16:03:47.621Z,5.43
2023-04-26T16:06:15.164Z,8.13
2023-04-26T16:08:42.299Z,5.57
2023-04-26T16:11:10.579Z,5.97
2023-04-26T16:13:37.585Z,8.07
2023-04-26T16:16:09.065Z,6.18
2023-04-26T16:18:39.482Z,4.50
2023-04-26T16:21:07.605Z,5.78
2023-04-26T16:23:34.666Z,5.47
2023-04-26T16:26:01.853Z,5.07
2023-04-26T16:28:29.716Z,8.32
2023-04-26T16:30:57.062Z,10.85
2023-04-26T16:33:24.361Z,9.68
2023-04-26T16:35:52.723Z,6.03
2023-04-26T16:38:20.160Z,4.85
2023-04-26T16:41:01.854Z,5.45
2023-04-26T16:43:29.505Z,7.07
2023-04-26T16:46:05.079Z,7.05
2023-04-26T16:48:33.721Z,5.88
2023-04-26T16:51:02.966Z,5.57
2023-04-26T16:53:31.865Z,7.35
2023-04-26T16:55:59.213Z,5.30
2023-04-26T16:58:26.851Z,8.52
2023-04-26T17:00:53.914Z,8.68
2023-04-26T17:03:21.605Z,6.22
2023-04-26T17:05:49.202Z,8.38
2023-04-26T17:08:17.143Z,6.63
2023-04-26T17:10:44.394Z,7.47
2023-04-26T17:13:12.732Z,7.00
2023-04-26T17:15:41.130Z,6.13
2023-04-26T17:18:08.506Z,5.65
2023-04-26T17:20:35.898Z,7.65
2023-04-26T17:23:04.339Z,9.85
2023-04-26T17:25:32.752Z,7.60
2023-04-26T17:28:00.028Z,6.20
2023-04-26T17:30:27.412Z,7.10
2023-04-26T17:32:55.982Z,9.55
2023-04-26T17:35:23.027Z,6.30
2023-04-26T17:37:53.278Z,8.23
2023-04-26T17:40:23.119Z,6.72
2023-04-26T17:42:50.673Z,8.35
2023-04-26T17:45:17.744Z,7.72
2023-04-26T17:47:45.987Z,7.28
2023-04-26T17:50:15.711Z,5.43
2023-04-26T17:52:42.763Z,8.00
2023-04-26T17:55:16.049Z,11.48
2023-04-26T17:57:43.216Z,11.23
2023-04-26T18:00:10.795Z,7.90
2023-04-26T18:02:38.209Z,10.32
2023-04-26T18:05:11.323Z,7.55
2023-04-26T18:07:38.675Z,9.52
2023-04-26T18:10:06.613Z,7.65
2023-04-26T18:12:36.637Z,8.48
2023-04-26T18:15:04.018Z,9.02
2023-04-26T18:17:34.834Z,11.10
2023-04-26T18:20:02.292Z,8.88
2023-04-26T18:22:29.618Z,8.68
2023-04-26T18:24:57.407Z,10.20
2023-04-26T18:27:25.778Z,11.13
2023-04-26T18:29:53.879Z,9.38
2023-04-26T18:32:24.327Z,9.57
2023-04-26T18:34:58.767Z,8.90
2023-04-26T18:37:25.830Z,9.57
2023-04-26T18:39:54.580Z,11.25
2023-04-26T18:42:22.176Z,10.80
2023-04-26T18:44:56.550Z,8.85
2023-04-26T18:47:27.674Z,10.27
2023-04-26T18:49:56.014Z,11.70
2023-04-26T18:52:23.597Z,13.32
2023-04-26T18:54:54.022Z,13.32
2023-04-26T18:57:23.668Z,12.15
2023-04-26T18:59:52.664Z,14.00
2023-04-26T19:02:19.702Z,15.38
2023-04-26T19:04:50.625Z,13.38
2023-04-26T19:07:17.866Z,14.95
2023-04-26T19:09:53.766Z,15.52
2023-04-26T19:12:33.861Z,14.85
2023-04-26T19:15:01.007Z,15.68
2023-04-26T19:17:30.209Z,18.63
2023-04-26T19:19:58.175Z,23.45
2023-04-26T19:22:25.166Z,17.17
2023-04-26T19:24:52.314Z,17.58
2023-04-26T19:27:19.479Z,17.73
2023-04-26T19:29:46.697Z,14.45
2023-04-26T19:32:15.601Z,13.13
2023-04-26T19:34:42.662Z,14.25
2023-04-26T19:37:12.152Z,13.52
2023-04-26T19:39:47.659Z,10.77
2023-04-26T19:42:16.011Z,11.30
2023-04-26T19:44:45.403Z,12.25
2023-04-26T19:47:12.700Z,10.20
2023-04-26T19:49:49.640Z,9.82
2023-04-26T19:52:17.195Z,15.25
2023-04-26T19:54:44.296Z,12.95
2023-04-26T19:57:11.809Z,12.95
2023-04-26T19:59:39.025Z,11.95
2023-04-26T20:02:06.837Z,13.13
2023-04-26T20:04:34.650Z,16.98
2023-04-26T20:07:04.810Z,13.82
2023-04-26T20:09:32.648Z,19.92
2023-04-26T20:12:00.201Z,19.88
2023-04-26T20:14:27.702Z,19.20
2023-04-26T20:16:54.867Z,20.20
2023-04-26T20:19:23.592Z,24.05
2023-04-26T20:21:51.854Z,22.40
2023-04-26T20:24:19.225Z,21.98
2023-04-26T20:26:46.975Z,19.45
2023-04-26T20:29:15.348Z,21.92
2023-04-26T20:31:42.439Z,23.58
2023-04-26T20:34:09.785Z,20.50
2023-04-26T20:36:36.896Z,19.23
2023-04-26T20:39:05.072Z,17.50
2023-04-26T20:41:32.468Z,17.85
2023-04-26T20:44:02.891Z,17.30
2023-04-26T20:46:29.987Z,17.33
2023-04-26T20:48:57.254Z,15.75
2023-04-26T20:51:24.382Z,13.73
2023-04-26T20:53:51.591Z,19.35
2023-04-26T20:56:18.682Z,15.25
2023-04-26T20:58:45.700Z,15.48
2023-04-26T21:01:12.757Z,18.77
2023-04-26T21:03:39.970Z,23.13
2023-04-26T21:06:07.143Z,19.88
2023-04-26T21:08:36.553Z,20.85
2023-04-26T21:11:05.070Z,21.50
2023-04-26T21:13:33.113Z,18.58
2023-04-26T21:16:00.224Z,19.88
2023-04-26T21:18:28.548Z,18.70
2023-04-26T21:20:56.783Z,17.48
2023-04-26T21:23:25.232Z,16.30
2023-04-26T21:25:53.041Z,17.67
2023-04-26T21:28:20.820Z,17.67
2023-04-26T21:30:47.949Z,16.08
2023-04-26T21:33:16.039Z,18.85
2023-04-26T21:35:43.142Z,17.05
2023-04-26T21:38:10.258Z,21.27
2023-04-26T21:40:41.152Z,20.02
2023-04-26T21:43:08.329Z,16.63
2023-04-26T21:45:35.867Z,19.45
2023-04-26T21:48:06.839Z,17.70
2023-04-26T21:50:34.003Z,15.55
2023-04-26T21:53:01.088Z,17.38
2023-04-26T21:55:28.182Z,17.75
2023-04-26T21:57:55.756Z,16.75
2023-04-26T22:00:23.808Z,17.83
2023-04-26T22:02:51.585Z,18.13
2023-04-26T22:05:18.720Z,16.58
2023-04-26T22:07:45.937Z,20.80
2023-04-26T22:10:13.442Z,17.73
2023-04-26T22:12:40.591Z,16.98
2023-04-26T22:15:08.058Z,19.05
2023-04-26T22:17:36.160Z,17.33
2023-04-26T22:20:03.642Z,17.67
2023-04-26T22:22:30.884Z,18.73
2023-04-26T22:24:58.167Z,19.48
2023-04-26T22:27:25.326Z,22.42
2023-04-26T22:29:52.339Z,21.27
2023-04-26T22:32:19.805Z,24.05
2023-04-26T22:34:47.092Z,22.40
2023-04-26T22:37:21.179Z,27.35
2023-04-26T22:39:49.289Z,30.27
2023-04-26T22:42:16.555Z,30.65
2023-04-26T22:44:43.653Z,39.00
2023-04-26T22:47:10.677Z,42.17
2023-04-26T22:49:37.860Z,38.38
2023-04-26T22:52:17.054Z,36.70
2023-04-26T22:54:51.520Z,36.97
2023-04-26T22:57:18.994Z,37.95
2023-04-26T22:59:46.353Z,36.35
2023-04-26T23:02:15.369Z,40.30
2023-04-26T23:04:42.467Z,42.60
2023-04-26T23:07:09.842Z,37.20
2023-04-26T23:09:37.791Z,34.42
2023-04-26T23:12:05.889Z,39.33
2023-04-26T23:14:32.873Z,38.55
2023-04-26T23:17:00.052Z,33.10
2023-04-26T23:19:28.184Z,29.00
2023-04-26T23:21:55.321Z,31.70
2023-04-26T23:24:22.465Z,28.80
2023-04-26T23:26:49.624Z,31.48
2023-04-26T23:29:16.672Z,29.98
2023-04-26T23:31:43.828Z,32.92
2023-04-26T23:34:11.003Z,30.52
2023-04-26T23:36:38.051Z,30.40
2023-04-26T23:39:05.205Z,26.63
2023-04-26T23:41:32.442Z,27.60
2023-04-26T23:43:59.694Z,29.23
2023-04-26T23:46:26.850Z,27.77
2023-04-26T23:48:53.992Z,30.45
2023-04-26T23:51:21.053Z,30.20
2023-04-26T23:53:48.159Z,29.52
2023-04-26T23:56:18.124Z,27.80
2023-04-26T23:58:45.270Z,27.45
